sensor_id;sensor_type;location;lat;lon;timestamp;temperature;humidity
37896;DHT22;23733;53.254;10.430;2023-06-22T04:13:24;21.20;99.90
37896;DHT22;23733;53.254;10.430;2023-06-22T04:15:50;18.40;99.90
37896;DHT22;23733;53.254;10.430;2023-06-22T04:18:16;18.40;99.90
37896;DHT22;23733;53.254;10.430;2023-06-22T04:20:42;18.40;99.90
37896;DHT22;23733;53.254;10.430;2023-06-22T04:23:10;18.40;99.90
37896;DHT22;23733;53.254;10.430;2023-06-22T04:25:36;18.40;99.90
37896;DHT22;23733;53.254;10.430;2023-06-22T04:28:02;18.40;99.90
37896;DHT22;23733;53.254;10.430;2023-06-22T04:30:30;18.40;99.90
37896;DHT22;23733;53.254;10.430;2023-06-22T04:32:57;18.50;99.90
37896;DHT22;23733;53.254;10.430;2023-06-22T04:35:26;18.50;99.90
37896;DHT22;23733;53.254;10.430;2023-06-22T04:40:23;18.50;99.90
37896;DHT22;23733;53.254;10.430;2023-06-22T04:42:49;18.60;99.90
37896;DHT22;23733;53.254;10.430;2023-06-22T04:45:19;18.60;99.90
37896;DHT22;23733;53.254;10.430;2023-06-22T04:47:46;18.50;99.90
37896;DHT22;23733;53.254;10.430;2023-06-22T04:50:12;18.70;99.90
37896;DHT22;23733;53.254;10.430;2023-06-22T04:52:38;18.70;99.90
37896;DHT22;23733;53.254;10.430;2023-06-22T04:55:05;18.70;99.90
37896;DHT22;23733;53.254;10.430;2023-06-22T04:57:31;18.70;99.90
37896;DHT22;23733;53.254;10.430;2023-06-22T05:00:01;18.70;99.90
37896;DHT22;23733;53.254;10.430;2023-06-22T05:02:38;18.70;99.90
37896;DHT22;23733;53.254;10.430;2023-06-22T05:05:05;18.80;99.90
37896;DHT22;23733;53.254;10.430;2023-06-22T05:07:33;18.70;99.90
37896;DHT22;23733;53.254;10.430;2023-06-22T05:10:03;18.80;99.90
37896;DHT22;23733;53.254;10.430;2023-06-22T05:12:30;18.90;99.90
37896;DHT22;23733;53.254;10.430;2023-06-22T05:14:56;18.90;99.90
37896;DHT22;23733;53.254;10.430;2023-06-22T05:17:22;18.90;99.90
37896;DHT22;23733;53.254;10.430;2023-06-22T05:49:11;19.00;99.90
37896;DHT22;23733;53.254;10.430;2023-06-22T05:51:37;19.60;99.90
37896;DHT22;23733;53.254;10.430;2023-06-22T05:54:03;19.60;99.90
37896;DHT22;23733;53.254;10.430;2023-06-22T05:56:29;19.70;99.90
37896;DHT22;23733;53.254;10.430;2023-06-22T05:58:55;19.70;99.90
37896;DHT22;23733;53.254;10.430;2023-06-22T06:01:21;19.80;99.90
37896;DHT22;23733;53.254;10.430;2023-06-22T06:13:34;19.80;99.90
37896;DHT22;23733;53.254;10.430;2023-06-22T06:16:00;20.00;99.90
37896;DHT22;23733;53.254;10.430;2023-06-22T06:18:26;20.00;99.90
37896;DHT22;23733;53.254;10.430;2023-06-22T06:20:52;20.00;99.90
37896;DHT22;23733;53.254;10.430;2023-06-22T06:23:18;20.20;99.90
37896;DHT22;23733;53.254;10.430;2023-06-22T06:25:44;20.20;99.90
37896;DHT22;23733;53.254;10.430;2023-06-22T06:28:10;20.20;99.90
37896;DHT22;23733;53.254;10.430;2023-06-22T06:30:36;20.20;99.90
37896;DHT22;23733;53.254;10.430;2023-06-22T06:42:54;20.20;99.90
37896;DHT22;23733;53.254;10.430;2023-06-22T06:45:21;20.50;99.90
37896;DHT22;23733;53.254;10.430;2023-06-22T06:47:49;20.60;99.90
37896;DHT22;23733;53.254;10.430;2023-06-22T06:50:16;20.70;99.90
37896;DHT22;23733;53.254;10.430;2023-06-22T06:52:43;20.70;99.90
37896;DHT22;23733;53.254;10.430;2023-06-22T06:55:09;20.80;99.90
37896;DHT22;23733;53.254;10.430;2023-06-22T06:57:41;20.80;99.90
37896;DHT22;23733;53.254;10.430;2023-06-22T07:00:09;20.80;99.90
37896;DHT22;23733;53.254;10.430;2023-06-22T07:02:42;20.80;99.90
37896;DHT22;23733;53.254;10.430;2023-06-22T07:05:09;20.80;99.90
37896;DHT22;23733;53.254;10.430;2023-06-22T07:07:35;20.90;99.90
37896;DHT22;23733;53.254;10.430;2023-06-22T07:10:02;21.00;99.90
37896;DHT22;23733;53.254;10.430;2023-06-22T07:12:29;21.10;99.90
37896;DHT22;23733;53.254;10.430;2023-06-22T08:01:27;21.20;99.90
37896;DHT22;23733;53.254;10.430;2023-06-22T08:03:53;22.80;99.90
37896;DHT22;23733;53.254;10.430;2023-06-22T08:06:19;22.90;99.90
37896;DHT22;23733;53.254;10.430;2023-06-22T08:08:45;23.00;99.90
37896;DHT22;23733;53.254;10.430;2023-06-22T08:11:13;23.00;99.90
37896;DHT22;23733;53.254;10.430;2023-06-22T08:13:39;23.10;99.90
37896;DHT22;23733;53.254;10.430;2023-06-22T08:16:05;23.10;99.90
37896;DHT22;23733;53.254;10.430;2023-06-22T08:18:33;23.20;99.90
37896;DHT22;23733;53.254;10.430;2023-06-22T08:20:59;23.30;99.90
37896;DHT22;23733;53.254;10.430;2023-06-22T08:23:25;23.20;99.90
37896;DHT22;23733;53.254;10.430;2023-06-22T08:25:51;23.30;99.90
37896;DHT22;23733;53.254;10.430;2023-06-22T08:28:17;23.40;99.90
37896;DHT22;23733;53.254;10.430;2023-06-22T08:30:43;23.60;99.90
37896;DHT22;23733;53.254;10.430;2023-06-22T08:33:09;23.60;99.90
37896;DHT22;23733;53.254;10.430;2023-06-22T08:35:35;23.60;99.90
37896;DHT22;23733;53.254;10.430;2023-06-22T08:38:01;23.80;99.90
37896;DHT22;23733;53.254;10.430;2023-06-22T08:40:27;23.80;99.90
37896;DHT22;23733;53.254;10.430;2023-06-22T08:42:55;23.90;99.90
37896;DHT22;23733;53.254;10.430;2023-06-22T08:45:21;23.90;99.90
37896;DHT22;23733;53.254;10.430;2023-06-22T08:47:47;24.00;99.90
37896;DHT22;23733;53.254;10.430;2023-06-22T08:50:13;24.10;99.90
37896;DHT22;23733;53.254;10.430;2023-06-22T08:57:36;24.10;99.90
37896;DHT22;23733;53.254;10.430;2023-06-22T09:00:08;24.50;99.90
37896;DHT22;23733;53.254;10.430;2023-06-22T09:02:41;24.50;99.90
37896;DHT22;23733;53.254;10.430;2023-06-22T09:05:08;24.50;99.90
37896;DHT22;23733;53.254;10.430;2023-06-22T09:07:34;24.60;99.90
37896;DHT22;23733;53.254;10.430;2023-06-22T09:10:00;24.60;99.90
37896;DHT22;23733;53.254;10.430;2023-06-22T09:12:26;24.70;99.90
37896;DHT22;23733;53.254;10.430;2023-06-22T09:14:53;24.80;99.90
37896;DHT22;23733;53.254;10.430;2023-06-22T09:17:19;24.80;99.90
37896;DHT22;23733;53.254;10.430;2023-06-22T09:19:45;24.90;99.90
37896;DHT22;23733;53.254;10.430;2023-06-22T09:22:11;25.00;99.90
37896;DHT22;23733;53.254;10.430;2023-06-22T09:24:37;25.00;99.90
37896;DHT22;23733;53.254;10.430;2023-06-22T09:27:04;25.00;99.90
37896;DHT22;23733;53.254;10.430;2023-06-22T09:29:30;25.20;99.90
37896;DHT22;23733;53.254;10.430;2023-06-22T09:31:59;25.30;99.90
37896;DHT22;23733;53.254;10.430;2023-06-22T09:34:25;25.30;99.90
37896;DHT22;23733;53.254;10.430;2023-06-22T09:36:51;25.50;99.90
37896;DHT22;23733;53.254;10.430;2023-06-22T09:39:18;25.50;99.90
37896;DHT22;23733;53.254;10.430;2023-06-22T09:41:44;25.60;99.90
37896;DHT22;23733;53.254;10.430;2023-06-22T09:44:10;25.60;99.90
37896;DHT22;23733;53.254;10.430;2023-06-22T09:46:36;25.70;99.90
37896;DHT22;23733;53.254;10.430;2023-06-22T09:49:02;25.70;99.90
37896;DHT22;23733;53.254;10.430;2023-06-22T09:51:28;25.90;99.90
37896;DHT22;23733;53.254;10.430;2023-06-22T09:53:54;25.80;99.90
37896;DHT22;23733;53.254;10.430;2023-06-22T09:56:20;25.90;99.90
37896;DHT22;23733;53.254;10.430;2023-06-22T09:58:47;26.00;99.90
37896;DHT22;23733;53.254;10.430;2023-06-22T10:01:13;26.10;99.90
37896;DHT22;23733;53.254;10.430;2023-06-22T10:03:42;26.20;99.90
37896;DHT22;23733;53.254;10.430;2023-06-22T10:06:08;26.20;99.90
37896;DHT22;23733;53.254;10.430;2023-06-22T10:08:35;26.20;99.90
37896;DHT22;23733;53.254;10.430;2023-06-22T10:11:02;26.30;99.90
37896;DHT22;23733;53.254;10.430;2023-06-22T10:13:28;26.40;99.90
37896;DHT22;23733;53.254;10.430;2023-06-22T10:15:54;26.50;99.90
37896;DHT22;23733;53.254;10.430;2023-06-22T10:18:20;26.40;99.90
37896;DHT22;23733;53.254;10.430;2023-06-22T10:20:50;26.60;99.90
37896;DHT22;23733;53.254;10.430;2023-06-22T10:23:20;26.60;99.90
37896;DHT22;23733;53.254;10.430;2023-06-22T10:25:46;26.60;99.90
37896;DHT22;23733;53.254;10.430;2023-06-22T10:28:12;26.60;99.90
37896;DHT22;23733;53.254;10.430;2023-06-22T10:30:39;26.60;99.90
37896;DHT22;23733;53.254;10.430;2023-06-22T10:33:07;26.70;99.90
37896;DHT22;23733;53.254;10.430;2023-06-22T10:35:34;26.90;99.90
37896;DHT22;23733;53.254;10.430;2023-06-22T10:38:00;27.10;99.90
37896;DHT22;23733;53.254;10.430;2023-06-22T10:40:26;27.30;99.90
37896;DHT22;23733;53.254;10.430;2023-06-22T10:42:52;27.20;99.90
37896;DHT22;23733;53.254;10.430;2023-06-22T10:45:18;27.30;99.90
37896;DHT22;23733;53.254;10.430;2023-06-22T10:47:44;27.50;99.90
37896;DHT22;23733;53.254;10.430;2023-06-22T10:50:11;27.50;99.90
37896;DHT22;23733;53.254;10.430;2023-06-22T10:52:37;27.50;99.90
37896;DHT22;23733;53.254;10.430;2023-06-22T10:55:04;27.60;99.90
37896;DHT22;23733;53.254;10.430;2023-06-22T10:57:30;27.60;99.90
37896;DHT22;23733;53.254;10.430;2023-06-22T10:59:56;27.60;99.90
37896;DHT22;23733;53.254;10.430;2023-06-22T11:02:22;27.60;99.90
37896;DHT22;23733;53.254;10.430;2023-06-22T11:04:48;27.60;99.90
37896;DHT22;23733;53.254;10.430;2023-06-22T11:07:16;27.70;99.90
37896;DHT22;23733;53.254;10.430;2023-06-22T11:09:43;27.60;99.90
37896;DHT22;23733;53.254;10.430;2023-06-22T11:12:09;27.50;99.90
37896;DHT22;23733;53.254;10.430;2023-06-22T11:14:35;27.50;99.90
37896;DHT22;23733;53.254;10.430;2023-06-22T11:17:01;27.50;99.90
37896;DHT22;23733;53.254;10.430;2023-06-22T11:19:27;27.40;99.90
37896;DHT22;23733;53.254;10.430;2023-06-22T11:21:53;27.30;99.90
37896;DHT22;23733;53.254;10.430;2023-06-22T11:24:19;27.40;99.90
37896;DHT22;23733;53.254;10.430;2023-06-22T11:26:45;27.40;99.90
37896;DHT22;23733;53.254;10.430;2023-06-22T11:29:11;27.40;99.90
37896;DHT22;23733;53.254;10.430;2023-06-22T11:31:37;27.40;99.90
37896;DHT22;23733;53.254;10.430;2023-06-22T11:34:03;27.40;99.90
37896;DHT22;23733;53.254;10.430;2023-06-22T11:36:30;27.50;99.90
37896;DHT22;23733;53.254;10.430;2023-06-22T11:38:58;27.70;99.90
37896;DHT22;23733;53.254;10.430;2023-06-22T11:41:24;27.70;99.90
37896;DHT22;23733;53.254;10.430;2023-06-22T11:43:50;27.80;99.90
37896;DHT22;23733;53.254;10.430;2023-06-22T11:46:16;27.90;99.90
37896;DHT22;23733;53.254;10.430;2023-06-22T11:48:42;27.70;99.90
37896;DHT22;23733;53.254;10.430;2023-06-22T11:51:09;27.60;99.90
37896;DHT22;23733;53.254;10.430;2023-06-22T11:53:35;27.60;99.90
37896;DHT22;23733;53.254;10.430;2023-06-22T11:56:01;27.50;99.90
37896;DHT22;23733;53.254;10.430;2023-06-22T11:58:27;27.50;99.90
37896;DHT22;23733;53.254;10.430;2023-06-22T12:00:54;27.40;99.90
37896;DHT22;23733;53.254;10.430;2023-06-22T12:03:20;27.50;99.90
37896;DHT22;23733;53.254;10.430;2023-06-22T12:05:50;27.60;99.90
37896;DHT22;23733;53.254;10.430;2023-06-22T12:08:18;27.50;99.90
37896;DHT22;23733;53.254;10.430;2023-06-22T12:10:44;27.50;99.90
37896;DHT22;23733;53.254;10.430;2023-06-22T12:13:10;27.60;99.90
37896;DHT22;23733;53.254;10.430;2023-06-22T12:15:36;27.70;99.90
37896;DHT22;23733;53.254;10.430;2023-06-22T12:18:02;27.70;99.90
37896;DHT22;23733;53.254;10.430;2023-06-22T12:20:29;27.60;99.90
37896;DHT22;23733;53.254;10.430;2023-06-22T12:22:55;27.70;99.90
37896;DHT22;23733;53.254;10.430;2023-06-22T12:25:22;27.70;99.90
37896;DHT22;23733;53.254;10.430;2023-06-22T12:27:48;27.70;99.90
37896;DHT22;23733;53.254;10.430;2023-06-22T12:30:16;27.70;99.90
37896;DHT22;23733;53.254;10.430;2023-06-22T12:32:42;27.80;99.90
37896;DHT22;23733;53.254;10.430;2023-06-22T12:35:08;27.80;99.90
37896;DHT22;23733;53.254;10.430;2023-06-22T12:37:43;27.80;99.90
37896;DHT22;23733;53.254;10.430;2023-06-22T12:40:09;27.60;99.90
37896;DHT22;23733;53.254;10.430;2023-06-22T12:42:36;27.50;99.90
37896;DHT22;23733;53.254;10.430;2023-06-22T12:45:02;27.50;99.90
37896;DHT22;23733;53.254;10.430;2023-06-22T12:47:28;27.60;99.90
37896;DHT22;23733;53.254;10.430;2023-06-22T12:49:54;27.50;99.90
37896;DHT22;23733;53.254;10.430;2023-06-22T12:52:20;27.40;99.90
37896;DHT22;23733;53.254;10.430;2023-06-22T12:54:46;27.30;99.90
37896;DHT22;23733;53.254;10.430;2023-06-22T12:57:12;27.30;99.90
37896;DHT22;23733;53.254;10.430;2023-06-22T12:59:38;27.40;99.90
37896;DHT22;23733;53.254;10.430;2023-06-22T13:02:04;27.40;99.90
37896;DHT22;23733;53.254;10.430;2023-06-22T13:04:31;27.40;99.90
37896;DHT22;23733;53.254;10.430;2023-06-22T13:06:57;27.40;99.90
37896;DHT22;23733;53.254;10.430;2023-06-22T13:09:23;27.40;99.90
37896;DHT22;23733;53.254;10.430;2023-06-22T13:11:49;27.30;99.90
37896;DHT22;23733;53.254;10.430;2023-06-22T13:31:23;27.10;99.90
37896;DHT22;23733;53.254;10.430;2023-06-22T13:33:49;27.00;99.90
37896;DHT22;23733;53.254;10.430;2023-06-22T16:56:46;27.00;99.90
37896;DHT22;23733;53.254;10.430;2023-06-22T16:59:12;25.30;99.90
37896;DHT22;23733;53.254;10.430;2023-06-22T17:01:48;25.30;99.90
37896;DHT22;23733;53.254;10.430;2023-06-22T17:04:16;25.20;99.90
37896;DHT22;23733;53.254;10.430;2023-06-22T17:06:51;25.10;99.90
37896;DHT22;23733;53.254;10.430;2023-06-22T17:09:19;25.00;99.90
37896;DHT22;23733;53.254;10.430;2023-06-22T17:44:12;24.80;99.90
37896;DHT22;23733;53.254;10.430;2023-06-22T17:46:41;22.90;99.90
37896;DHT22;23733;53.254;10.430;2023-06-22T19:11:26;22.70;99.90
37896;DHT22;23733;53.254;10.430;2023-06-22T19:13:53;21.00;99.90
37896;DHT22;23733;53.254;10.430;2023-06-22T21:09:54;20.90;99.90
37896;DHT22;23733;53.254;10.430;2023-06-22T21:12:20;19.40;99.90
37896;DHT22;23733;53.254;10.430;2023-06-22T21:14:46;19.30;99.90
37896;DHT22;23733;53.254;10.430;2023-06-22T21:17:12;19.40;99.90
37896;DHT22;23733;53.254;10.430;2023-06-22T21:19:38;19.40;99.90
37896;DHT22;23733;53.254;10.430;2023-06-22T21:22:04;19.30;99.90
37896;DHT22;23733;53.254;10.430;2023-06-22T21:24:30;19.30;99.90
37896;DHT22;23733;53.254;10.430;2023-06-22T21:26:56;19.20;99.90
37896;DHT22;23733;53.254;10.430;2023-06-22T21:29:22;19.20;99.90
37896;DHT22;23733;53.254;10.430;2023-06-22T21:31:48;19.00;99.90
37896;DHT22;23733;53.254;10.430;2023-06-22T21:51:19;18.80;99.90
37896;DHT22;23733;53.254;10.430;2023-06-22T22:32:51;18.70;99.90
37896;DHT22;23733;53.254;10.430;2023-06-22T22:35:17;19.20;99.90
37896;DHT22;23733;53.254;10.430;2023-06-22T22:37:43;19.10;99.90
37896;DHT22;23733;53.254;10.430;2023-06-22T22:40:09;19.10;99.90
37896;DHT22;23733;53.254;10.430;2023-06-22T22:42:36;19.10;99.90
37896;DHT22;23733;53.254;10.430;2023-06-22T22:45:03;19.10;99.90
37896;DHT22;23733;53.254;10.430;2023-06-22T22:47:33;19.00;99.90
37896;DHT22;23733;53.254;10.430;2023-06-22T22:50:00;19.00;99.90
37896;DHT22;23733;53.254;10.430;2023-06-22T22:52:27;19.00;99.90
37896;DHT22;23733;53.254;10.430;2023-06-22T22:54:56;19.00;99.90
37896;DHT22;23733;53.254;10.430;2023-06-22T22:57:22;19.00;99.90
37896;DHT22;23733;53.254;10.430;2023-06-22T22:59:48;18.90;99.90
37896;DHT22;23733;53.254;10.430;2023-06-22T23:02:14;18.90;99.90
37896;DHT22;23733;53.254;10.430;2023-06-22T23:04:40;18.90;99.90
37896;DHT22;23733;53.254;10.430;2023-06-22T23:07:06;18.80;99.90
37896;DHT22;23733;53.254;10.430;2023-06-22T23:09:32;18.80;99.90
37896;DHT22;23733;53.254;10.430;2023-06-22T23:11:58;18.80;99.90
37896;DHT22;23733;53.254;10.430;2023-06-22T23:14:24;18.90;99.90
37896;DHT22;23733;53.254;10.430;2023-06-22T23:16:50;18.80;99.90
37896;DHT22;23733;53.254;10.430;2023-06-22T23:19:16;18.80;99.90
37896;DHT22;23733;53.254;10.430;2023-06-22T23:21:42;18.70;99.90
37896;DHT22;23733;53.254;10.430;2023-06-22T23:24:08;18.70;99.90
37896;DHT22;23733;53.254;10.430;2023-06-22T23:26:34;18.70;99.90
37896;DHT22;23733;53.254;10.430;2023-06-22T23:29:00;18.70;99.90
37896;DHT22;23733;53.254;10.430;2023-06-22T23:31:26;18.70;99.90
37896;DHT22;23733;53.254;10.430;2023-06-22T23:33:52;18.70;99.90
37896;DHT22;23733;53.254;10.430;2023-06-22T23:36:18;18.70;99.90
37896;DHT22;23733;53.254;10.430;2023-06-22T23:38:44;18.70;99.90
37896;DHT22;23733;53.254;10.430;2023-06-22T23:41:10;18.70;99.90
37896;DHT22;23733;53.254;10.430;2023-06-22T23:43:37;18.70;99.90
37896;DHT22;23733;53.254;10.430;2023-06-22T23:46:05;18.60;99.90
37896;DHT22;23733;53.254;10.430;2023-06-22T23:48:31;18.60;99.90
37896;DHT22;23733;53.254;10.430;2023-06-22T23:50:57;18.70;99.90
37896;DHT22;23733;53.254;10.430;2023-06-22T23:53:26;18.60;99.90
37896;DHT22;23733;53.254;10.430;2023-06-22T23:55:52;18.60;99.90
